sensor_id;sensor_type;location;lat;lon;timestamp;temperature;humidity
44271;DHT22;29963;44.594;11.368;2023-06-10T00:00:41;23.70;99.90
44271;DHT22;29963;44.594;11.368;2023-06-10T00:03:07;23.60;99.90
44271;DHT22;29963;44.594;11.368;2023-06-10T00:05:34;23.50;99.90
44271;DHT22;29963;44.594;11.368;2023-06-10T00:08:01;23.50;99.90
44271;DHT22;29963;44.594;11.368;2023-06-10T00:10:33;23.60;99.90
44271;DHT22;29963;44.594;11.368;2023-06-10T00:12:58;23.70;99.90
44271;DHT22;29963;44.594;11.368;2023-06-10T00:15:24;23.60;99.90
44271;DHT22;29963;44.594;11.368;2023-06-10T00:17:50;23.60;99.90
44271;DHT22;29963;44.594;11.368;2023-06-10T00:20:20;23.70;99.90
44271;DHT22;29963;44.594;11.368;2023-06-10T00:22:51;23.70;99.90
44271;DHT22;29963;44.594;11.368;2023-06-10T00:25:17;23.70;99.90
44271;DHT22;29963;44.594;11.368;2023-06-10T00:27:43;23.70;99.90
44271;DHT22;29963;44.594;11.368;2023-06-10T00:30:12;23.70;99.90
44271;DHT22;29963;44.594;11.368;2023-06-10T00:32:38;23.80;99.90
44271;DHT22;29963;44.594;11.368;2023-06-10T00:35:04;23.80;99.90
44271;DHT22;29963;44.594;11.368;2023-06-10T00:37:31;23.80;99.90
44271;DHT22;29963;44.594;11.368;2023-06-10T00:39:57;23.80;99.90
44271;DHT22;29963;44.594;11.368;2023-06-10T00:42:23;23.70;99.90
44271;DHT22;29963;44.594;11.368;2023-06-10T00:44:50;23.40;99.90
44271;DHT22;29963;44.594;11.368;2023-06-10T00:47:16;23.10;99.90
44271;DHT22;29963;44.594;11.368;2023-06-10T00:49:43;22.80;99.90
44271;DHT22;29963;44.594;11.368;2023-06-10T00:52:09;22.60;99.90
44271;DHT22;29963;44.594;11.368;2023-06-10T00:54:37;22.30;99.90
44271;DHT22;29963;44.594;11.368;2023-06-10T00:57:03;22.00;99.90
44271;DHT22;29963;44.594;11.368;2023-06-10T00:59:29;21.90;99.90
44271;DHT22;29963;44.594;11.368;2023-06-10T01:01:56;21.70;99.90
44271;DHT22;29963;44.594;11.368;2023-06-10T01:04:22;21.70;99.90
44271;DHT22;29963;44.594;11.368;2023-06-10T01:12:39;21.30;99.90
44271;DHT22;29963;44.594;11.368;2023-06-10T01:15:08;21.30;99.90
44271;DHT22;29963;44.594;11.368;2023-06-10T01:17:36;21.20;99.90
44271;DHT22;29963;44.594;11.368;2023-06-10T01:20:03;21.10;99.90
44271;DHT22;29963;44.594;11.368;2023-06-10T01:22:29;21.10;99.90
44271;DHT22;29963;44.594;11.368;2023-06-10T01:24:58;21.20;99.90
44271;DHT22;29963;44.594;11.368;2023-06-10T01:27:28;21.20;99.90
44271;DHT22;29963;44.594;11.368;2023-06-10T01:29:59;21.00;99.90
44271;DHT22;29963;44.594;11.368;2023-06-10T01:32:40;21.30;99.90
44271;DHT22;29963;44.594;11.368;2023-06-10T01:35:06;21.40;99.90
44271;DHT22;29963;44.594;11.368;2023-06-10T01:37:33;21.40;99.90
44271;DHT22;29963;44.594;11.368;2023-06-10T01:40:00;21.30;99.90
44271;DHT22;29963;44.594;11.368;2023-06-10T01:42:29;21.20;99.90
44271;DHT22;29963;44.594;11.368;2023-06-10T01:44:55;21.10;99.90
44271;DHT22;29963;44.594;11.368;2023-06-10T01:47:20;21.10;99.90
44271;DHT22;29963;44.594;11.368;2023-06-10T01:49:46;21.00;99.90
44271;DHT22;29963;44.594;11.368;2023-06-10T01:52:12;20.90;99.90
44271;DHT22;29963;44.594;11.368;2023-06-10T01:54:37;21.00;99.90
44271;DHT22;29963;44.594;11.368;2023-06-10T01:57:03;21.00;99.90
44271;DHT22;29963;44.594;11.368;2023-06-10T01:59:31;21.00;99.90
44271;DHT22;29963;44.594;11.368;2023-06-10T02:01:57;21.00;99.90
44271;DHT22;29963;44.594;11.368;2023-06-10T02:04:22;21.00;99.90
44271;DHT22;29963;44.594;11.368;2023-06-10T02:06:48;21.00;99.90
44271;DHT22;29963;44.594;11.368;2023-06-10T02:09:14;20.90;99.90
44271;DHT22;29963;44.594;11.368;2023-06-10T02:11:39;20.90;99.90
44271;DHT22;29963;44.594;11.368;2023-06-10T02:14:05;20.80;99.90
44271;DHT22;29963;44.594;11.368;2023-06-10T02:16:30;20.70;99.90
44271;DHT22;29963;44.594;11.368;2023-06-10T02:18:56;20.60;99.90
44271;DHT22;29963;44.594;11.368;2023-06-10T02:21:23;20.60;99.90
44271;DHT22;29963;44.594;11.368;2023-06-10T02:23:48;20.60;99.90
44271;DHT22;29963;44.594;11.368;2023-06-10T02:26:14;20.70;99.90
44271;DHT22;29963;44.594;11.368;2023-06-10T02:28:43;20.80;99.90
44271;DHT22;29963;44.594;11.368;2023-06-10T02:31:08;21.00;99.90
44271;DHT22;29963;44.594;11.368;2023-06-10T02:33:34;21.00;99.90
44271;DHT22;29963;44.594;11.368;2023-06-10T02:36:00;21.00;99.90
44271;DHT22;29963;44.594;11.368;2023-06-10T02:38:25;21.10;99.90
44271;DHT22;29963;44.594;11.368;2023-06-10T02:40:51;21.00;99.90
44271;DHT22;29963;44.594;11.368;2023-06-10T02:43:17;21.00;99.90
44271;DHT22;29963;44.594;11.368;2023-06-10T02:45:42;21.00;99.90
44271;DHT22;29963;44.594;11.368;2023-06-10T02:48:08;21.10;99.90
44271;DHT22;29963;44.594;11.368;2023-06-10T02:50:34;21.00;99.90
44271;DHT22;29963;44.594;11.368;2023-06-10T02:52:59;21.00;99.90
44271;DHT22;29963;44.594;11.368;2023-06-10T02:55:25;20.90;99.90
44271;DHT22;29963;44.594;11.368;2023-06-10T02:57:52;21.00;99.90
44271;DHT22;29963;44.594;11.368;2023-06-10T03:00:19;21.00;99.90
44271;DHT22;29963;44.594;11.368;2023-06-10T03:02:45;21.10;99.90
44271;DHT22;29963;44.594;11.368;2023-06-10T03:05:11;21.10;99.90
44271;DHT22;29963;44.594;11.368;2023-06-10T03:07:38;21.20;99.90
44271;DHT22;29963;44.594;11.368;2023-06-10T03:10:05;21.20;99.90
44271;DHT22;29963;44.594;11.368;2023-06-10T03:12:31;21.30;99.90
44271;DHT22;29963;44.594;11.368;2023-06-10T03:14:57;21.40;99.90
44271;DHT22;29963;44.594;11.368;2023-06-10T03:17:23;21.40;99.90
44271;DHT22;29963;44.594;11.368;2023-06-10T03:19:49;21.40;99.90
44271;DHT22;29963;44.594;11.368;2023-06-10T03:22:15;21.50;99.90
44271;DHT22;29963;44.594;11.368;2023-06-10T03:24:41;21.50;99.90
44271;DHT22;29963;44.594;11.368;2023-06-10T03:27:09;21.60;99.90
44271;DHT22;29963;44.594;11.368;2023-06-10T03:29:37;21.50;99.90
44271;DHT22;29963;44.594;11.368;2023-06-10T03:32:03;21.60;99.90
44271;DHT22;29963;44.594;11.368;2023-06-10T03:34:28;21.70;99.90
44271;DHT22;29963;44.594;11.368;2023-06-10T03:36:58;21.70;99.90
44271;DHT22;29963;44.594;11.368;2023-06-10T03:39:23;21.70;99.90
44271;DHT22;29963;44.594;11.368;2023-06-10T03:41:52;21.70;99.90
44271;DHT22;29963;44.594;11.368;2023-06-10T03:44:18;21.70;99.90
44271;DHT22;29963;44.594;11.368;2023-06-10T03:46:43;21.70;99.90
44271;DHT22;29963;44.594;11.368;2023-06-10T03:49:09;21.70;99.90
44271;DHT22;29963;44.594;11.368;2023-06-10T03:51:35;21.70;99.90
44271;DHT22;29963;44.594;11.368;2023-06-10T03:54:01;21.70;99.90
44271;DHT22;29963;44.594;11.368;2023-06-10T03:56:27;21.80;99.90
44271;DHT22;29963;44.594;11.368;2023-06-10T03:58:54;21.90;99.90
44271;DHT22;29963;44.594;11.368;2023-06-10T04:01:20;21.90;99.90
44271;DHT22;29963;44.594;11.368;2023-06-10T04:03:47;21.90;99.90
44271;DHT22;29963;44.594;11.368;2023-06-10T04:06:14;21.90;99.90
44271;DHT22;29963;44.594;11.368;2023-06-10T04:08:40;21.90;99.90
44271;DHT22;29963;44.594;11.368;2023-06-10T04:11:05;22.00;99.90
44271;DHT22;29963;44.594;11.368;2023-06-10T04:13:31;22.00;99.90
44271;DHT22;29963;44.594;11.368;2023-06-10T04:15:57;22.10;99.90
44271;DHT22;29963;44.594;11.368;2023-06-10T04:18:23;22.10;99.90
44271;DHT22;29963;44.594;11.368;2023-06-10T04:20:48;22.10;99.90
44271;DHT22;29963;44.594;11.368;2023-06-10T04:23:14;22.00;99.90
44271;DHT22;29963;44.594;11.368;2023-06-10T04:25:39;22.00;99.90
44271;DHT22;29963;44.594;11.368;2023-06-10T04:28:05;22.00;99.90
44271;DHT22;29963;44.594;11.368;2023-06-10T04:30:30;21.90;99.90
44271;DHT22;29963;44.594;11.368;2023-06-10T04:32:57;21.90;99.90
44271;DHT22;29963;44.594;11.368;2023-06-10T04:35:25;21.80;99.90
44271;DHT22;29963;44.594;11.368;2023-06-10T04:37:54;21.80;99.90
44271;DHT22;29963;44.594;11.368;2023-06-10T04:40:19;21.70;99.90
44271;DHT22;29963;44.594;11.368;2023-06-10T04:42:48;21.70;99.90
44271;DHT22;29963;44.594;11.368;2023-06-10T04:45:14;21.60;99.90
44271;DHT22;29963;44.594;11.368;2023-06-10T04:47:40;21.60;99.90
44271;DHT22;29963;44.594;11.368;2023-06-10T04:50:06;21.60;99.90
44271;DHT22;29963;44.594;11.368;2023-06-10T04:52:32;21.60;99.90
44271;DHT22;29963;44.594;11.368;2023-06-10T04:55:01;21.50;99.90
44271;DHT22;29963;44.594;11.368;2023-06-10T04:57:26;21.50;99.90
44271;DHT22;29963;44.594;11.368;2023-06-10T04:59:53;21.60;99.90
44271;DHT22;29963;44.594;11.368;2023-06-10T05:02:18;21.70;99.90
44271;DHT22;29963;44.594;11.368;2023-06-10T05:04:44;21.60;99.90
44271;DHT22;29963;44.594;11.368;2023-06-10T05:07:10;21.60;99.90
44271;DHT22;29963;44.594;11.368;2023-06-10T05:09:35;21.50;99.90
44271;DHT22;29963;44.594;11.368;2023-06-10T05:12:02;21.40;99.90
44271;DHT22;29963;44.594;11.368;2023-06-10T05:14:28;21.50;99.90
44271;DHT22;29963;44.594;11.368;2023-06-10T05:16:54;21.50;99.90
44271;DHT22;29963;44.594;11.368;2023-06-10T05:19:22;21.50;99.90
44271;DHT22;29963;44.594;11.368;2023-06-10T05:21:48;21.40;99.90
44271;DHT22;29963;44.594;11.368;2023-06-10T05:24:13;21.40;99.90
44271;DHT22;29963;44.594;11.368;2023-06-10T05:26:39;21.30;99.90
44271;DHT22;29963;44.594;11.368;2023-06-10T05:29:07;21.30;99.90
44271;DHT22;29963;44.594;11.368;2023-06-10T05:31:33;21.40;99.90
44271;DHT22;29963;44.594;11.368;2023-06-10T05:33:59;21.40;99.90
44271;DHT22;29963;44.594;11.368;2023-06-10T05:36:24;21.50;99.90
44271;DHT22;29963;44.594;11.368;2023-06-10T05:38:53;21.50;99.90
44271;DHT22;29963;44.594;11.368;2023-06-10T05:41:19;21.50;99.90
44271;DHT22;29963;44.594;11.368;2023-06-10T05:43:45;21.50;99.90
44271;DHT22;29963;44.594;11.368;2023-06-10T05:46:11;21.50;99.90
44271;DHT22;29963;44.594;11.368;2023-06-10T05:48:36;21.50;99.90
44271;DHT22;29963;44.594;11.368;2023-06-10T05:51:02;21.60;99.90
44271;DHT22;29963;44.594;11.368;2023-06-10T05:53:27;21.60;99.90
44271;DHT22;29963;44.594;11.368;2023-06-10T05:55:53;21.60;99.90
44271;DHT22;29963;44.594;11.368;2023-06-10T05:58:23;21.60;99.90
44271;DHT22;29963;44.594;11.368;2023-06-10T06:00:49;21.70;99.90
44271;DHT22;29963;44.594;11.368;2023-06-10T06:03:14;21.70;99.90
44271;DHT22;29963;44.594;11.368;2023-06-10T06:05:40;21.80;99.90
44271;DHT22;29963;44.594;11.368;2023-06-10T06:08:06;21.90;99.90
44271;DHT22;29963;44.594;11.368;2023-06-10T06:10:32;21.90;99.90
44271;DHT22;29963;44.594;11.368;2023-06-10T06:12:57;22.00;99.90
44271;DHT22;29963;44.594;11.368;2023-06-10T06:15:23;22.00;99.90
44271;DHT22;29963;44.594;11.368;2023-06-10T06:17:49;22.10;99.90
44271;DHT22;29963;44.594;11.368;2023-06-10T06:20:18;22.10;99.90
44271;DHT22;29963;44.594;11.368;2023-06-10T06:22:44;22.20;99.90
44271;DHT22;29963;44.594;11.368;2023-06-10T06:25:09;22.10;99.90
44271;DHT22;29963;44.594;11.368;2023-06-10T06:27:35;22.10;99.90
44271;DHT22;29963;44.594;11.368;2023-06-10T06:30:01;22.10;99.90
44271;DHT22;29963;44.594;11.368;2023-06-10T06:32:26;22.10;99.90
44271;DHT22;29963;44.594;11.368;2023-06-10T06:34:53;22.10;99.90
44271;DHT22;29963;44.594;11.368;2023-06-10T06:37:21;22.10;99.90
44271;DHT22;29963;44.594;11.368;2023-06-10T06:39:47;22.10;99.90
44271;DHT22;29963;44.594;11.368;2023-06-10T06:42:16;22.20;99.90
44271;DHT22;29963;44.594;11.368;2023-06-10T06:44:42;22.30;99.90
44271;DHT22;29963;44.594;11.368;2023-06-10T06:47:07;22.40;99.90
44271;DHT22;29963;44.594;11.368;2023-06-10T06:49:33;22.50;99.90
44271;DHT22;29963;44.594;11.368;2023-06-10T06:51:59;22.50;99.90
44271;DHT22;29963;44.594;11.368;2023-06-10T06:54:24;22.60;99.90
44271;DHT22;29963;44.594;11.368;2023-06-10T06:56:50;22.70;99.90
44271;DHT22;29963;44.594;11.368;2023-06-10T06:59:15;22.70;99.90
44271;DHT22;29963;44.594;11.368;2023-06-10T07:01:44;22.70;99.90
44271;DHT22;29963;44.594;11.368;2023-06-10T07:04:10;22.80;99.90
44271;DHT22;29963;44.594;11.368;2023-06-10T07:06:36;22.80;99.90
44271;DHT22;29963;44.594;11.368;2023-06-10T07:09:04;22.90;99.90
44271;DHT22;29963;44.594;11.368;2023-06-10T07:11:30;22.90;99.90
44271;DHT22;29963;44.594;11.368;2023-06-10T07:13:56;22.90;99.90
44271;DHT22;29963;44.594;11.368;2023-06-10T07:16:22;22.90;99.90
44271;DHT22;29963;44.594;11.368;2023-06-10T07:18:47;23.00;99.90
44271;DHT22;29963;44.594;11.368;2023-06-10T07:21:13;23.00;99.90
44271;DHT22;29963;44.594;11.368;2023-06-10T07:23:42;23.10;99.90
44271;DHT22;29963;44.594;11.368;2023-06-10T07:26:08;23.20;99.90
44271;DHT22;29963;44.594;11.368;2023-06-10T07:28:37;23.10;99.90
44271;DHT22;29963;44.594;11.368;2023-06-10T07:31:03;23.20;99.90
44271;DHT22;29963;44.594;11.368;2023-06-10T07:33:28;23.30;99.90
44271;DHT22;29963;44.594;11.368;2023-06-10T07:35:54;23.30;99.90
44271;DHT22;29963;44.594;11.368;2023-06-10T07:38:20;23.40;99.90
44271;DHT22;29963;44.594;11.368;2023-06-10T07:40:46;23.50;99.90
44271;DHT22;29963;44.594;11.368;2023-06-10T07:43:11;23.50;99.90
44271;DHT22;29963;44.594;11.368;2023-06-10T07:45:40;23.50;99.90
44271;DHT22;29963;44.594;11.368;2023-06-10T07:48:05;23.50;99.90
44271;DHT22;29963;44.594;11.368;2023-06-10T07:50:31;23.60;99.90
44271;DHT22;29963;44.594;11.368;2023-06-10T07:52:57;23.60;99.90
44271;DHT22;29963;44.594;11.368;2023-06-10T07:55:22;23.50;99.90
44271;DHT22;29963;44.594;11.368;2023-06-10T07:57:49;23.60;99.90
44271;DHT22;29963;44.594;11.368;2023-06-10T08:00:15;23.70;99.90
44271;DHT22;29963;44.594;11.368;2023-06-10T08:02:40;23.80;99.90
44271;DHT22;29963;44.594;11.368;2023-06-10T08:05:06;23.90;99.90
44271;DHT22;29963;44.594;11.368;2023-06-10T08:07:32;24.00;99.90
44271;DHT22;29963;44.594;11.368;2023-06-10T08:09:58;24.00;99.90
44271;DHT22;29963;44.594;11.368;2023-06-10T08:12:23;23.90;99.90
44271;DHT22;29963;44.594;11.368;2023-06-10T08:14:49;23.90;99.90
44271;DHT22;29963;44.594;11.368;2023-06-10T08:17:14;23.90;99.90
44271;DHT22;29963;44.594;11.368;2023-06-10T08:19:40;23.80;99.90
44271;DHT22;29963;44.594;11.368;2023-06-10T08:22:06;23.80;99.90
44271;DHT22;29963;44.594;11.368;2023-06-10T08:24:32;23.70;99.90
44271;DHT22;29963;44.594;11.368;2023-06-10T08:26:58;23.60;99.90
44271;DHT22;29963;44.594;11.368;2023-06-10T08:29:25;23.50;99.90
44271;DHT22;29963;44.594;11.368;2023-06-10T08:31:50;23.60;99.90
44271;DHT22;29963;44.594;11.368;2023-06-10T08:34:16;23.60;99.90
44271;DHT22;29963;44.594;11.368;2023-06-10T08:36:43;23.80;99.90
44271;DHT22;29963;44.594;11.368;2023-06-10T08:39:09;23.90;99.90
44271;DHT22;29963;44.594;11.368;2023-06-10T08:41:39;23.90;99.90
44271;DHT22;29963;44.594;11.368;2023-06-10T08:44:21;23.90;99.90
44271;DHT22;29963;44.594;11.368;2023-06-10T08:46:48;24.10;99.90
44271;DHT22;29963;44.594;11.368;2023-06-10T08:49:19;24.10;99.90
44271;DHT22;29963;44.594;11.368;2023-06-10T08:51:50;24.20;99.90
44271;DHT22;29963;44.594;11.368;2023-06-10T08:54:27;24.30;99.90
44271;DHT22;29963;44.594;11.368;2023-06-10T08:56:55;24.30;99.90
44271;DHT22;29963;44.594;11.368;2023-06-10T08:59:23;24.30;99.90
44271;DHT22;29963;44.594;11.368;2023-06-10T09:01:50;24.50;99.90
44271;DHT22;29963;44.594;11.368;2023-06-10T09:04:17;24.40;99.90
44271;DHT22;29963;44.594;11.368;2023-06-10T09:06:44;24.60;99.90
44271;DHT22;29963;44.594;11.368;2023-06-10T09:09:10;24.60;99.90
44271;DHT22;29963;44.594;11.368;2023-06-10T09:11:38;24.60;99.90
44271;DHT22;29963;44.594;11.368;2023-06-10T09:14:03;24.70;99.90
44271;DHT22;29963;44.594;11.368;2023-06-10T09:16:29;24.60;99.90
44271;DHT22;29963;44.594;11.368;2023-06-10T09:18:55;24.80;99.90
44271;DHT22;29963;44.594;11.368;2023-06-10T09:21:25;24.80;99.90
44271;DHT22;29963;44.594;11.368;2023-06-10T09:23:51;24.80;99.90
44271;DHT22;29963;44.594;11.368;2023-06-10T09:26:18;24.80;99.90
44271;DHT22;29963;44.594;11.368;2023-06-10T09:28:47;24.80;99.90
44271;DHT22;29963;44.594;11.368;2023-06-10T09:31:13;24.60;99.90
44271;DHT22;29963;44.594;11.368;2023-06-10T09:33:39;24.60;99.90
44271;DHT22;29963;44.594;11.368;2023-06-10T09:36:06;24.60;99.90
44271;DHT22;29963;44.594;11.368;2023-06-10T09:38:34;24.50;99.90
44271;DHT22;29963;44.594;11.368;2023-06-10T09:41:00;24.50;99.90
44271;DHT22;29963;44.594;11.368;2023-06-10T09:43:46;24.50;99.90
44271;DHT22;29963;44.594;11.368;2023-06-10T09:46:15;24.60;99.90
44271;DHT22;29963;44.594;11.368;2023-06-10T09:48:47;24.60;99.90
44271;DHT22;29963;44.594;11.368;2023-06-10T09:51:14;24.70;99.90
44271;DHT22;29963;44.594;11.368;2023-06-10T09:53:40;24.80;99.90
44271;DHT22;29963;44.594;11.368;2023-06-10T09:56:06;24.90;99.90
44271;DHT22;29963;44.594;11.368;2023-06-10T09:58:38;25.00;99.90
44271;DHT22;29963;44.594;11.368;2023-06-10T10:01:11;25.00;99.90
44271;DHT22;29963;44.594;11.368;2023-06-10T10:03:44;25.00;99.90
44271;DHT22;29963;44.594;11.368;2023-06-10T10:06:12;25.00;99.90
44271;DHT22;29963;44.594;11.368;2023-06-10T10:08:37;25.00;99.90
44271;DHT22;29963;44.594;11.368;2023-06-10T10:11:03;25.10;99.90
44271;DHT22;29963;44.594;11.368;2023-06-10T10:13:29;25.20;99.90
44271;DHT22;29963;44.594;11.368;2023-06-10T10:16:00;25.20;99.90
44271;DHT22;29963;44.594;11.368;2023-06-10T10:18:29;25.30;99.90
44271;DHT22;29963;44.594;11.368;2023-06-10T10:20:58;25.40;99.90
44271;DHT22;29963;44.594;11.368;2023-06-10T10:23:32;25.50;99.90
44271;DHT22;29963;44.594;11.368;2023-06-10T10:26:04;25.60;99.90
44271;DHT22;29963;44.594;11.368;2023-06-10T10:28:48;25.50;99.90
44271;DHT22;29963;44.594;11.368;2023-06-10T10:31:18;25.70;99.90
44271;DHT22;29963;44.594;11.368;2023-06-10T10:34:00;25.80;99.90
44271;DHT22;29963;44.594;11.368;2023-06-10T10:36:27;25.90;99.90
44271;DHT22;29963;44.594;11.368;2023-06-10T10:38:53;25.90;99.90
44271;DHT22;29963;44.594;11.368;2023-06-10T10:41:20;25.90;99.90
44271;DHT22;29963;44.594;11.368;2023-06-10T10:43:46;26.00;99.90
44271;DHT22;29963;44.594;11.368;2023-06-10T10:46:14;26.10;99.90
44271;DHT22;29963;44.594;11.368;2023-06-10T10:48:41;26.10;99.90
44271;DHT22;29963;44.594;11.368;2023-06-10T10:51:10;26.20;99.90
44271;DHT22;29963;44.594;11.368;2023-06-10T10:53:39;26.30;99.90
44271;DHT22;29963;44.594;11.368;2023-06-10T10:58:31;26.30;99.90
44271;DHT22;29963;44.594;11.368;2023-06-10T11:00:57;26.40;99.90
44271;DHT22;29963;44.594;11.368;2023-06-10T11:03:28;26.40;99.90
44271;DHT22;29963;44.594;11.368;2023-06-10T11:05:57;26.50;99.90
44271;DHT22;29963;44.594;11.368;2023-06-10T11:10:58;26.70;99.90
44271;DHT22;29963;44.594;11.368;2023-06-10T11:13:25;26.80;99.90
44271;DHT22;29963;44.594;11.368;2023-06-10T11:15:52;26.90;99.90
44271;DHT22;29963;44.594;11.368;2023-06-10T11:33:54;26.80;99.90
44271;DHT22;29963;44.594;11.368;2023-06-10T11:36:20;26.80;99.90
44271;DHT22;29963;44.594;11.368;2023-06-10T11:38:45;26.70;99.90
44271;DHT22;29963;44.594;11.368;2023-06-10T11:41:12;26.60;99.90
44271;DHT22;29963;44.594;11.368;2023-06-10T11:43:43;26.50;99.90
44271;DHT22;29963;44.594;11.368;2023-06-10T11:46:09;26.30;99.90
44271;DHT22;29963;44.594;11.368;2023-06-10T11:48:35;26.10;99.90
44271;DHT22;29963;44.594;11.368;2023-06-10T11:51:06;26.00;99.90
44271;DHT22;29963;44.594;11.368;2023-06-10T11:53:31;25.90;99.90
44271;DHT22;29963;44.594;11.368;2023-06-10T11:55:57;25.90;99.90
44271;DHT22;29963;44.594;11.368;2023-06-10T11:58:22;25.90;99.90
44271;DHT22;29963;44.594;11.368;2023-06-10T12:00:50;25.90;99.90
44271;DHT22;29963;44.594;11.368;2023-06-10T12:03:17;25.80;99.90
44271;DHT22;29963;44.594;11.368;2023-06-10T12:06:03;25.80;99.90
44271;DHT22;29963;44.594;11.368;2023-06-10T12:08:29;25.70;99.90
44271;DHT22;29963;44.594;11.368;2023-06-10T12:10:56;25.70;99.90
44271;DHT22;29963;44.594;11.368;2023-06-10T12:13:22;25.70;99.90
44271;DHT22;29963;44.594;11.368;2023-06-10T12:15:49;25.70;99.90
44271;DHT22;29963;44.594;11.368;2023-06-10T12:18:22;25.90;99.90
44271;DHT22;29963;44.594;11.368;2023-06-10T12:20:48;25.90;99.90
44271;DHT22;29963;44.594;11.368;2023-06-10T12:23:15;25.90;99.90
44271;DHT22;29963;44.594;11.368;2023-06-10T12:25:53;25.90;99.90
44271;DHT22;29963;44.594;11.368;2023-06-10T12:28:22;25.90;99.90
44271;DHT22;29963;44.594;11.368;2023-06-10T12:30:48;26.00;99.90
44271;DHT22;29963;44.594;11.368;2023-06-10T12:33:20;26.10;99.90
44271;DHT22;29963;44.594;11.368;2023-06-10T12:35:50;26.10;99.90
44271;DHT22;29963;44.594;11.368;2023-06-10T12:38:23;26.20;99.90
44271;DHT22;29963;44.594;11.368;2023-06-10T12:41:03;26.30;99.90
44271;DHT22;29963;44.594;11.368;2023-06-10T12:43:31;26.30;99.90
44271;DHT22;29963;44.594;11.368;2023-06-10T12:46:08;26.30;99.90
44271;DHT22;29963;44.594;11.368;2023-06-10T12:48:34;26.30;99.90
44271;DHT22;29963;44.594;11.368;2023-06-10T12:51:01;26.20;99.90
44271;DHT22;29963;44.594;11.368;2023-06-10T12:53:26;26.20;99.90
44271;DHT22;29963;44.594;11.368;2023-06-10T12:55:52;26.20;99.90
44271;DHT22;29963;44.594;11.368;2023-06-10T12:58:21;26.20;99.90
44271;DHT22;29963;44.594;11.368;2023-06-10T13:00:47;26.10;99.90
44271;DHT22;29963;44.594;11.368;2023-06-10T13:03:14;26.10;99.90
44271;DHT22;29963;44.594;11.368;2023-06-10T13:05:40;26.10;99.90
44271;DHT22;29963;44.594;11.368;2023-06-10T13:08:09;26.10;99.90
44271;DHT22;29963;44.594;11.368;2023-06-10T13:10:38;26.10;99.90
44271;DHT22;29963;44.594;11.368;2023-06-10T13:13:04;26.10;99.90
44271;DHT22;29963;44.594;11.368;2023-06-10T13:15:32;26.10;99.90
44271;DHT22;29963;44.594;11.368;2023-06-10T13:18:01;26.10;99.90
44271;DHT22;29963;44.594;11.368;2023-06-10T13:20:27;26.10;99.90
44271;DHT22;29963;44.594;11.368;2023-06-10T13:22:53;26.10;99.90
44271;DHT22;29963;44.594;11.368;2023-06-10T13:25:18;26.10;99.90
44271;DHT22;29963;44.594;11.368;2023-06-10T13:27:44;26.10;99.90
44271;DHT22;29963;44.594;11.368;2023-06-10T13:30:10;25.90;99.90
44271;DHT22;29963;44.594;11.368;2023-06-10T13:32:36;25.90;99.90
44271;DHT22;29963;44.594;11.368;2023-06-10T13:35:02;25.90;99.90
44271;DHT22;29963;44.594;11.368;2023-06-10T13:37:28;25.80;99.90
44271;DHT22;29963;44.594;11.368;2023-06-10T13:39:54;25.60;99.90
44271;DHT22;29963;44.594;11.368;2023-06-10T13:42:20;25.60;99.90
44271;DHT22;29963;44.594;11.368;2023-06-10T13:44:49;25.50;99.90
44271;DHT22;29963;44.594;11.368;2023-06-10T13:47:15;25.40;99.90
44271;DHT22;29963;44.594;11.368;2023-06-10T13:49:40;25.30;99.90
44271;DHT22;29963;44.594;11.368;2023-06-10T13:52:07;25.20;99.90
44271;DHT22;29963;44.594;11.368;2023-06-10T13:54:33;25.10;99.90
44271;DHT22;29963;44.594;11.368;2023-06-10T13:56:59;25.00;99.90
44271;DHT22;29963;44.594;11.368;2023-06-10T13:59:25;25.10;99.90
44271;DHT22;29963;44.594;11.368;2023-06-10T14:01:51;24.90;99.90
44271;DHT22;29963;44.594;11.368;2023-06-10T14:04:17;24.90;99.90
44271;DHT22;29963;44.594;11.368;2023-06-10T14:06:42;24.90;99.90
44271;DHT22;29963;44.594;11.368;2023-06-10T14:09:09;24.90;99.90
44271;DHT22;29963;44.594;11.368;2023-06-10T14:11:34;24.90;99.90
44271;DHT22;29963;44.594;11.368;2023-06-10T14:14:00;24.90;99.90
44271;DHT22;29963;44.594;11.368;2023-06-10T14:16:26;24.90;99.90
44271;DHT22;29963;44.594;11.368;2023-06-10T14:18:52;24.80;99.90
44271;DHT22;29963;44.594;11.368;2023-06-10T14:21:18;24.80;99.90
44271;DHT22;29963;44.594;11.368;2023-06-10T14:23:43;24.70;99.90
44271;DHT22;29963;44.594;11.368;2023-06-10T14:26:10;24.70;99.90
44271;DHT22;29963;44.594;11.368;2023-06-10T14:28:35;24.60;99.90
44271;DHT22;29963;44.594;11.368;2023-06-10T14:31:01;24.60;99.90
44271;DHT22;29963;44.594;11.368;2023-06-10T14:33:26;24.70;99.90
44271;DHT22;29963;44.594;11.368;2023-06-10T14:35:52;24.80;99.90
44271;DHT22;29963;44.594;11.368;2023-06-10T14:38:18;24.70;99.90
44271;DHT22;29963;44.594;11.368;2023-06-10T14:40:44;24.80;99.90
44271;DHT22;29963;44.594;11.368;2023-06-10T14:43:09;24.80;99.90
44271;DHT22;29963;44.594;11.368;2023-06-10T14:45:36;24.90;99.90
44271;DHT22;29963;44.594;11.368;2023-06-10T14:48:03;25.00;99.90
44271;DHT22;29963;44.594;11.368;2023-06-10T14:50:29;25.00;99.90
44271;DHT22;29963;44.594;11.368;2023-06-10T14:52:54;25.00;99.90
44271;DHT22;29963;44.594;11.368;2023-06-10T14:55:20;25.00;99.90
44271;DHT22;29963;44.594;11.368;2023-06-10T14:57:48;25.10;99.90
44271;DHT22;29963;44.594;11.368;2023-06-10T15:00:14;25.10;99.90
44271;DHT22;29963;44.594;11.368;2023-06-10T15:02:42;25.00;99.90
44271;DHT22;29963;44.594;11.368;2023-06-10T15:05:08;25.00;99.90
44271;DHT22;29963;44.594;11.368;2023-06-10T15:07:34;25.00;99.90
44271;DHT22;29963;44.594;11.368;2023-06-10T15:09:59;25.00;99.90
44271;DHT22;29963;44.594;11.368;2023-06-10T15:12:25;25.10;99.90
44271;DHT22;29963;44.594;11.368;2023-06-10T15:14:51;25.10;99.90
44271;DHT22;29963;44.594;11.368;2023-06-10T15:17:17;25.10;99.90
44271;DHT22;29963;44.594;11.368;2023-06-10T15:19:42;25.20;99.90
44271;DHT22;29963;44.594;11.368;2023-06-10T15:22:08;25.20;99.90
44271;DHT22;29963;44.594;11.368;2023-06-10T15:24:34;25.20;99.90
44271;DHT22;29963;44.594;11.368;2023-06-10T15:26:59;25.20;99.90
44271;DHT22;29963;44.594;11.368;2023-06-10T15:29:25;25.20;99.90
44271;DHT22;29963;44.594;11.368;2023-06-10T15:31:51;25.20;99.90
44271;DHT22;29963;44.594;11.368;2023-06-10T15:34:16;25.10;99.90
44271;DHT22;29963;44.594;11.368;2023-06-10T15:36:42;25.10;99.90
44271;DHT22;29963;44.594;11.368;2023-06-10T15:39:08;25.00;99.90